Time;durP1;ratioP1;P1;durP2;ratioP2;P2;SDS_P1;SDS_P2;PMS_P1;PMS_P2;Temp;Humidity;BMP_temperature;BMP_pressure;BME280_temperature;BME280_humidity;BME280_pressure;Samples;Min_cycle;Max_cycle;Signal;HPM_P1;HPM_P2
2023/10/24 00:00:46;;;;;;;0.68;0.57;;;;;;;;;;5025350;28;20057;-79
2023/10/24 00:03:13;;;;;;;0.20;0.20;;;;;;;;;;5029112;28;20152;-79
2023/10/24 00:05:41;;;;;;;0.20;0.20;;;;;;;;;;5027077;28;20044;-77
2023/10/24 00:08:11;;;;;;;0.90;0.75;;;;;;;;;;5025083;28;20049;-79
2023/10/24 00:10:38;;;;;;;0.00;0.00;;;;;;;;;;5029348;28;20041;-79
2023/10/24 00:13:06;;;;;;;1.25;0.77;;;;;;;;;;5030813;28;20095;-76
2023/10/24 00:15:33;;;;;;;0.10;0.10;;;;;;;;;;5026108;28;20112;-75
2023/10/24 00:18:00;;;;;;;0.10;0.10;;;;;;;;;;5027833;28;20053;-77
2023/10/24 00:20:28;;;;;;;0.10;0.10;;;;;;;;;;5030712;28;20534;-79
2023/10/24 00:22:55;;;;;;;1.38;1.27;;;;;;;;;;5029722;28;20072;-73
2023/10/24 00:25:23;;;;;;;0.10;0.10;;;;;;;;;;5021435;28;20045;-76
2023/10/24 00:27:50;;;;;;;0.32;0.32;;;;;;;;;;5032955;23;20062;-75
2023/10/24 00:30:19;;;;;;;0.10;0.10;;;;;;;;;;5013041;28;20049;-75
2023/10/24 00:32:49;;;;;;;0.10;0.10;;;;;;;;;;5031584;28;20063;-76
2023/10/24 00:35:18;;;;;;;0.55;0.55;;;;;;;;;;5015367;28;20055;-76
2023/10/24 00:37:45;;;;;;;0.35;0.32;;;;;;;;;;5026609;28;20049;-76
2023/10/24 00:40:13;;;;;;;0.10;0.10;;;;;;;;;;5042525;28;20049;-76
2023/10/24 00:42:40;;;;;;;0.10;0.10;;;;;;;;;;5019383;28;20134;-77
2023/10/24 00:45:08;;;;;;;0.10;0.10;;;;;;;;;;5018694;28;20041;-77
2023/10/24 00:47:36;;;;;;;0.10;0.10;;;;;;;;;;5026661;28;20132;-76
2023/10/24 00:50:03;;;;;;;0.30;0.30;;;;;;;;;;5008768;28;20136;-76
2023/10/24 00:52:31;;;;;;;0.08;0.08;;;;;;;;;;5028217;28;20041;-76
2023/10/24 00:54:59;;;;;;;0.10;0.10;;;;;;;;;;5024352;28;20414;-76
2023/10/24 00:57:26;;;;;;;0.30;0.30;;;;;;;;;;5010279;28;20446;-76
2023/10/24 00:59:54;;;;;;;0.73;0.73;;;;;;;;;;5036505;28;20049;-76
2023/10/24 01:02:22;;;;;;;0.10;0.10;;;;;;;;;;5012901;28;20053;-76
2023/10/24 01:04:51;;;;;;;0.20;0.20;;;;;;;;;;5016903;28;20504;-76
2023/10/24 01:07:19;;;;;;;0.00;0.00;;;;;;;;;;5023798;28;20049;-76
2023/10/24 01:09:46;;;;;;;0.10;0.10;;;;;;;;;;5026192;28;20053;-76
2023/10/24 01:12:14;;;;;;;0.45;0.45;;;;;;;;;;5028698;28;20052;-76
2023/10/24 01:14:41;;;;;;;0.03;0.03;;;;;;;;;;5007119;28;20501;-76
2023/10/24 01:17:09;;;;;;;0.10;0.10;;;;;;;;;;5007020;28;20123;-76
2023/10/24 01:19:38;;;;;;;0.10;0.10;;;;;;;;;;5027220;28;20532;-76
2023/10/24 01:22:05;;;;;;;0.20;0.20;;;;;;;;;;5021713;28;20045;-76
2023/10/24 01:24:33;;;;;;;0.00;0.00;;;;;;;;;;5025728;28;20060;-76
2023/10/24 01:27:00;;;;;;;0.10;0.10;;;;;;;;;;5014539;28;20056;-76
2023/10/24 01:29:28;;;;;;;0.08;0.08;;;;;;;;;;5026768;28;20049;-76
2023/10/24 01:31:55;;;;;;;0.10;0.10;;;;;;;;;;5019612;28;20045;-76
2023/10/24 01:34:23;;;;;;;0.30;0.30;;;;;;;;;;5013304;28;20045;-76
2023/10/24 01:36:50;;;;;;;0.10;0.10;;;;;;;;;;5028208;28;20060;-76
2023/10/24 01:39:19;;;;;;;0.30;0.30;;;;;;;;;;5042042;28;20569;-76
2023/10/24 01:41:47;;;;;;;0.05;0.05;;;;;;;;;;5015134;28;20049;-76
2023/10/24 01:44:14;;;;;;;0.10;0.10;;;;;;;;;;5011984;28;20543;-76
2023/10/24 01:46:42;;;;;;;1.25;1.20;;;;;;;;;;5025065;28;20046;-76
2023/10/24 01:49:09;;;;;;;0.38;0.38;;;;;;;;;;5026568;28;20130;-76
2023/10/24 01:51:38;;;;;;;0.45;0.45;;;;;;;;;;5019211;28;20041;-76
2023/10/24 01:54:06;;;;;;;0.30;0.30;;;;;;;;;;5021723;28;20053;-75
2023/10/24 01:56:33;;;;;;;0.00;0.00;;;;;;;;;;5027913;28;20053;-76
2023/10/24 01:59:01;;;;;;;0.10;0.10;;;;;;;;;;5005113;28;20431;-76
2023/10/24 02:01:28;;;;;;;0.70;0.70;;;;;;;;;;5014101;28;20127;-76
2023/10/24 02:03:58;;;;;;;0.10;0.10;;;;;;;;;;5028504;28;20495;-76
2023/10/24 02:06:26;;;;;;;0.55;0.55;;;;;;;;;;4987842;28;20046;-76
2023/10/24 02:08:54;;;;;;;0.10;0.10;;;;;;;;;;5015827;28;20057;-76
2023/10/24 02:11:22;;;;;;;0.32;0.32;;;;;;;;;;5015862;28;20085;-76
2023/10/24 02:13:50;;;;;;;0.30;0.30;;;;;;;;;;5019118;28;20053;-76
2023/10/24 02:16:17;;;;;;;0.10;0.10;;;;;;;;;;5025194;28;20200;-76
2023/10/24 02:18:45;;;;;;;0.57;0.57;;;;;;;;;;5018456;28;20060;-76
2023/10/24 02:21:12;;;;;;;0.30;0.30;;;;;;;;;;5011368;28;20057;-76
2023/10/24 02:23:40;;;;;;;0.10;0.10;;;;;;;;;;4996564;28;20045;-76
2023/10/24 02:26:14;;;;;;;0.80;0.60;;;;;;;;;;5014720;28;20061;-76
2023/10/24 02:28:42;;;;;;;0.38;0.38;;;;;;;;;;5011388;28;20037;-76
2023/10/24 02:31:10;;;;;;;0.00;0.00;;;;;;;;;;5002351;28;20511;-76
2023/10/24 02:33:38;;;;;;;0.00;0.00;;;;;;;;;;5023261;28;20063;-76
2023/10/24 02:36:06;;;;;;;0.05;0.05;;;;;;;;;;5021717;28;20780;-76
2023/10/24 02:38:34;;;;;;;0.00;0.00;;;;;;;;;;5032988;28;20045;-76
2023/10/24 02:41:01;;;;;;;0.00;0.00;;;;;;;;;;5004070;28;20465;-76
2023/10/24 02:43:29;;;;;;;0.20;0.20;;;;;;;;;;5009111;28;20087;-74
2023/10/24 02:45:57;;;;;;;0.10;0.10;;;;;;;;;;5004006;28;20475;-74
2023/10/24 02:48:25;;;;;;;0.20;0.20;;;;;;;;;;5010847;28;20051;-74
2023/10/24 02:50:54;;;;;;;0.30;0.30;;;;;;;;;;5009115;28;20582;-77
2023/10/24 02:53:22;;;;;;;0.10;0.10;;;;;;;;;;5008964;28;20137;-76
2023/10/24 02:55:50;;;;;;;0.10;0.10;;;;;;;;;;5009359;28;20474;-76
2023/10/24 02:58:18;;;;;;;0.20;0.20;;;;;;;;;;5023759;28;20049;-76
2023/10/24 03:00:46;;;;;;;0.10;0.10;;;;;;;;;;5009107;28;20407;-76
2023/10/24 03:03:13;;;;;;;0.10;0.10;;;;;;;;;;5022158;28;20808;-76
2023/10/24 03:05:41;;;;;;;0.05;0.05;;;;;;;;;;5028761;28;20100;-76
2023/10/24 03:08:08;;;;;;;0.10;0.10;;;;;;;;;;5005370;28;20045;-76
2023/10/24 03:10:40;;;;;;;0.52;0.52;;;;;;;;;;5001725;28;20132;-76
2023/10/24 03:13:08;;;;;;;0.10;0.10;;;;;;;;;;5002360;28;20119;-76
2023/10/24 03:15:35;;;;;;;0.10;0.10;;;;;;;;;;5022947;28;20041;-76
2023/10/24 03:18:03;;;;;;;0.20;0.20;;;;;;;;;;5024056;28;20056;-76
2023/10/24 03:20:31;;;;;;;0.15;0.15;;;;;;;;;;5023672;28;20060;-76
2023/10/24 03:22:58;;;;;;;0.20;0.20;;;;;;;;;;5021054;28;20050;-77
2023/10/24 03:25:27;;;;;;;0.28;0.28;;;;;;;;;;5013554;28;20080;-77
2023/10/24 03:27:55;;;;;;;0.30;0.30;;;;;;;;;;5025580;28;20168;-77
2023/10/24 03:30:22;;;;;;;0.10;0.10;;;;;;;;;;5033832;28;20459;-76
2023/10/24 03:32:50;;;;;;;0.95;0.63;;;;;;;;;;5007035;28;20440;-76
2023/10/24 03:35:17;;;;;;;0.20;0.20;;;;;;;;;;5010434;28;20396;-77
2023/10/24 03:37:45;;;;;;;0.05;0.05;;;;;;;;;;5004161;28;20041;-76
2023/10/24 03:40:13;;;;;;;0.10;0.10;;;;;;;;;;5021670;28;20057;-76
2023/10/24 03:42:41;;;;;;;0.85;0.85;;;;;;;;;;5024347;28;20049;-76
2023/10/24 03:45:08;;;;;;;0.90;0.75;;;;;;;;;;5005588;28;20087;-78
2023/10/24 03:47:36;;;;;;;0.10;0.10;;;;;;;;;;5038479;28;20053;-76
2023/10/24 03:50:03;;;;;;;0.20;0.20;;;;;;;;;;5023409;28;20081;-76
2023/10/24 03:52:31;;;;;;;0.00;0.00;;;;;;;;;;5012588;28;20052;-76
2023/10/24 03:54:59;;;;;;;0.00;0.00;;;;;;;;;;5029334;28;20042;-76
2023/10/24 03:57:26;;;;;;;0.10;0.10;;;;;;;;;;5026492;28;20128;-76
2023/10/24 03:59:54;;;;;;;0.20;0.20;;;;;;;;;;5027829;28;20080;-76
2023/10/24 04:02:21;;;;;;;0.05;0.05;;;;;;;;;;5019867;28;20052;-76
2023/10/24 04:04:49;;;;;;;0.30;0.30;;;;;;;;;;5008576;28;20045;-76
2023/10/24 04:07:18;;;;;;;0.10;0.10;;;;;;;;;;5024279;28;20049;-76
2023/10/24 04:09:45;;;;;;;0.20;0.20;;;;;;;;;;5028812;28;20048;-76
2023/10/24 04:12:12;;;;;;;0.10;0.10;;;;;;;;;;5027124;28;20056;-76
2023/10/24 04:14:40;;;;;;;0.10;0.10;;;;;;;;;;5025771;28;20081;-76
2023/10/24 04:17:08;;;;;;;0.10;0.10;;;;;;;;;;5028709;28;20563;-76
2023/10/24 04:19:35;;;;;;;0.35;0.35;;;;;;;;;;5032903;28;20045;-76
2023/10/24 04:22:03;;;;;;;0.10;0.10;;;;;;;;;;5033268;28;20511;-79
2023/10/24 04:24:31;;;;;;;0.10;0.10;;;;;;;;;;5011696;28;20507;-77
2023/10/24 04:26:59;;;;;;;0.38;0.25;;;;;;;;;;5015786;28;20041;-77
2023/10/24 04:29:27;;;;;;;0.43;0.43;;;;;;;;;;5035534;28;20052;-77
2023/10/24 04:31:55;;;;;;;0.28;0.28;;;;;;;;;;5028957;28;20385;-74
2023/10/24 04:34:22;;;;;;;0.40;0.40;;;;;;;;;;5026808;28;20053;-76
2023/10/24 04:36:50;;;;;;;0.10;0.10;;;;;;;;;;5026364;28;20081;-76
2023/10/24 04:39:17;;;;;;;0.40;0.40;;;;;;;;;;5029560;28;20935;-76
2023/10/24 04:41:47;;;;;;;0.25;0.25;;;;;;;;;;5026700;28;20099;-76
2023/10/24 04:44:15;;;;;;;0.20;0.20;;;;;;;;;;5022767;28;20049;-76
2023/10/24 04:47:00;;;;;;;0.60;0.60;;;;;;;;;;5014899;28;20061;-77
2023/10/24 04:49:42;;;;;;;0.90;0.90;;;;;;;;;;5021346;28;20104;-76
2023/10/24 04:52:12;;;;;;;0.10;0.10;;;;;;;;;;4994831;28;20593;-76
2023/10/24 04:54:40;;;;;;;1.75;0.63;;;;;;;;;;5024385;28;20132;-76
2023/10/24 04:57:08;;;;;;;0.20;0.20;;;;;;;;;;5010069;28;20055;-76
2023/10/24 04:59:37;;;;;;;0.35;0.35;;;;;;;;;;5027245;28;20076;-77
2023/10/24 05:02:05;;;;;;;0.55;0.55;;;;;;;;;;5021766;28;20719;-77
2023/10/24 05:04:32;;;;;;;0.15;0.15;;;;;;;;;;5018047;28;20048;-77
2023/10/24 05:07:01;;;;;;;0.47;0.40;;;;;;;;;;5026538;28;20058;-76
2023/10/24 05:09:29;;;;;;;0.30;0.30;;;;;;;;;;5018677;28;20073;-80
2023/10/24 05:11:56;;;;;;;0.52;0.52;;;;;;;;;;5034081;28;20503;-78
2023/10/24 05:14:24;;;;;;;0.57;0.57;;;;;;;;;;5023910;28;20044;-76
2023/10/24 05:16:52;;;;;;;0.43;0.43;;;;;;;;;;5034360;28;20441;-75
2023/10/24 05:19:19;;;;;;;0.10;0.10;;;;;;;;;;5022614;28;20053;-74
2023/10/24 05:21:47;;;;;;;0.10;0.10;;;;;;;;;;5029317;28;20959;-77
2023/10/24 05:24:15;;;;;;;0.32;0.32;;;;;;;;;;5013852;28;20068;-76
2023/10/24 05:26:42;;;;;;;0.10;0.10;;;;;;;;;;5004527;28;20144;-76
2023/10/24 05:29:09;;;;;;;0.43;0.43;;;;;;;;;;5009066;28;20049;-75
2023/10/24 05:31:37;;;;;;;0.68;0.68;;;;;;;;;;5027154;28;20129;-78
2023/10/24 05:34:05;;;;;;;0.82;0.82;;;;;;;;;;5030085;28;20153;-76
2023/10/24 05:36:32;;;;;;;0.25;0.25;;;;;;;;;;5002699;28;20050;-75
2023/10/24 05:39:00;;;;;;;0.20;0.20;;;;;;;;;;5031971;28;20060;-76
2023/10/24 05:41:27;;;;;;;0.20;0.20;;;;;;;;;;5016103;28;20045;-77
2023/10/24 05:43:55;;;;;;;0.45;0.45;;;;;;;;;;5032283;28;20580;-76
2023/10/24 05:46:23;;;;;;;0.10;0.10;;;;;;;;;;5027109;28;20057;-75
2023/10/24 05:48:50;;;;;;;0.55;0.55;;;;;;;;;;5008684;28;20041;-76
2023/10/24 05:51:24;;;;;;;0.10;0.10;;;;;;;;;;5006808;28;20153;-76
2023/10/24 05:53:51;;;;;;;0.57;0.40;;;;;;;;;;5005312;28;20041;-77
2023/10/24 05:56:19;;;;;;;0.10;0.10;;;;;;;;;;5030439;28;20049;-76
2023/10/24 05:58:46;;;;;;;0.13;0.13;;;;;;;;;;5015886;28;20053;-76
2023/10/24 06:01:14;;;;;;;0.10;0.10;;;;;;;;;;5003938;28;20482;-76
2023/10/24 06:03:45;;;;;;;0.20;0.20;;;;;;;;;;5006166;28;20048;-76
2023/10/24 06:06:13;;;;;;;0.10;0.10;;;;;;;;;;5030011;28;20068;-76
2023/10/24 06:08:41;;;;;;;0.30;0.30;;;;;;;;;;5024803;28;21250;-77
2023/10/24 06:11:08;;;;;;;0.13;0.13;;;;;;;;;;5010040;28;20052;-76
2023/10/24 06:13:36;;;;;;;0.60;0.60;;;;;;;;;;5023941;28;20063;-76
2023/10/24 06:16:11;;;;;;;0.85;0.50;;;;;;;;;;5011326;28;20045;-76
2023/10/24 06:18:39;;;;;;;0.35;0.35;;;;;;;;;;5025775;28;20057;-76
2023/10/24 06:21:08;;;;;;;0.25;0.25;;;;;;;;;;5035999;28;20472;-76
2023/10/24 06:23:37;;;;;;;0.13;0.13;;;;;;;;;;5031463;28;20458;-77
2023/10/24 06:26:11;;;;;;;0.40;0.40;;;;;;;;;;5027469;28;20053;-76
2023/10/24 06:28:38;;;;;;;0.15;0.15;;;;;;;;;;5032113;23;20441;-78
2023/10/24 06:31:06;;;;;;;0.30;0.30;;;;;;;;;;5029595;28;20120;-78
2023/10/24 06:33:33;;;;;;;0.43;0.43;;;;;;;;;;5017460;28;20160;-78
2023/10/24 06:36:05;;;;;;;0.57;0.57;;;;;;;;;;5025527;28;20407;-78
2023/10/24 06:38:33;;;;;;;0.25;0.25;;;;;;;;;;5023592;28;20510;-78
2023/10/24 06:41:01;;;;;;;0.10;0.10;;;;;;;;;;5027063;28;20473;-78
2023/10/24 06:43:28;;;;;;;1.30;0.70;;;;;;;;;;5024945;28;20537;-78
2023/10/24 06:45:56;;;;;;;0.25;0.25;;;;;;;;;;5009316;28;20041;-78
2023/10/24 06:48:23;;;;;;;0.80;0.77;;;;;;;;;;5020929;28;20048;-77
2023/10/24 06:50:50;;;;;;;1.10;1.10;;;;;;;;;;5010171;28;20083;-78
2023/10/24 06:53:18;;;;;;;0.35;0.30;;;;;;;;;;5027400;28;20426;-78
2023/10/24 06:55:45;;;;;;;0.70;0.70;;;;;;;;;;4997340;28;20427;-78
2023/10/24 06:58:13;;;;;;;0.20;0.20;;;;;;;;;;5022961;28;20082;-78
2023/10/24 07:00:41;;;;;;;0.10;0.10;;;;;;;;;;5025333;28;20528;-78
2023/10/24 07:03:08;;;;;;;1.65;0.90;;;;;;;;;;5027939;28;20053;-78
2023/10/24 07:05:36;;;;;;;0.40;0.40;;;;;;;;;;5024090;28;20582;-78
2023/10/24 07:08:03;;;;;;;0.50;0.50;;;;;;;;;;5030640;28;20037;-78
2023/10/24 07:10:33;;;;;;;0.00;0.00;;;;;;;;;;5031423;28;20049;-78
2023/10/24 07:13:01;;;;;;;0.50;0.50;;;;;;;;;;5023533;28;20045;-77
2023/10/24 07:15:28;;;;;;;0.20;0.20;;;;;;;;;;5011666;28;20149;-78
2023/10/24 07:17:55;;;;;;;0.35;0.35;;;;;;;;;;5028295;28;20037;-78
2023/10/24 07:20:23;;;;;;;0.32;0.32;;;;;;;;;;5016893;28;20169;-78
2023/10/24 07:22:50;;;;;;;2.50;0.90;;;;;;;;;;5026205;28;20084;-78
2023/10/24 07:25:18;;;;;;;0.50;0.50;;;;;;;;;;5027544;28;20057;-78
2023/10/24 07:27:46;;;;;;;0.10;0.10;;;;;;;;;;5024043;28;20048;-78
2023/10/24 07:30:13;;;;;;;11.80;0.55;;;;;;;;;;5026772;28;20132;-78
2023/10/24 07:32:41;;;;;;;0.05;0.05;;;;;;;;;;5022275;28;20065;-78
2023/10/24 07:35:09;;;;;;;0.20;0.20;;;;;;;;;;5021625;28;20049;-78
2023/10/24 07:37:36;;;;;;;0.17;0.17;;;;;;;;;;5024685;28;20042;-78
2023/10/24 07:40:04;;;;;;;1.17;1.08;;;;;;;;;;5026564;28;20123;-78
2023/10/24 07:42:32;;;;;;;1.30;1.17;;;;;;;;;;5025872;28;20053;-78
2023/10/24 07:45:00;;;;;;;0.47;0.47;;;;;;;;;;5025396;28;20078;-78
2023/10/24 07:47:27;;;;;;;0.10;0.10;;;;;;;;;;5025345;28;20084;-78
2023/10/24 07:49:55;;;;;;;0.38;0.38;;;;;;;;;;5030486;28;20046;-79
2023/10/24 07:52:23;;;;;;;0.20;0.20;;;;;;;;;;5023860;28;20042;-79
2023/10/24 07:54:51;;;;;;;0.20;0.20;;;;;;;;;;5023426;28;20042;-78
2023/10/24 07:57:18;;;;;;;3.55;3.35;;;;;;;;;;5024036;28;20045;-75
2023/10/24 07:59:46;;;;;;;0.00;0.00;;;;;;;;;;5025630;28;20625;-80
2023/10/24 08:02:13;;;;;;;0.10;0.10;;;;;;;;;;5025858;28;20060;-77
2023/10/24 08:04:41;;;;;;;0.10;0.10;;;;;;;;;;5022296;28;20088;-75
2023/10/24 08:07:10;;;;;;;0.65;0.52;;;;;;;;;;5023241;28;20049;-78
2023/10/24 08:09:37;;;;;;;0.10;0.10;;;;;;;;;;5020471;28;20049;-77
2023/10/24 08:12:05;;;;;;;0.55;0.55;;;;;;;;;;5022251;28;20057;-77
2023/10/24 08:14:32;;;;;;;0.65;0.63;;;;;;;;;;5024856;28;20099;-77
2023/10/24 08:17:00;;;;;;;0.00;0.00;;;;;;;;;;5025652;28;20482;-78
2023/10/24 08:19:27;;;;;;;5.97;0.73;;;;;;;;;;5019106;28;20637;-77
2023/10/24 08:21:55;;;;;;;0.95;0.50;;;;;;;;;;5003202;28;20111;-77
2023/10/24 08:24:23;;;;;;;0.55;0.55;;;;;;;;;;5008027;28;20080;-78
2023/10/24 08:26:50;;;;;;;0.10;0.10;;;;;;;;;;5023711;28;20056;-77
2023/10/24 08:29:35;;;;;;;0.10;0.10;;;;;;;;;;5023933;28;20530;-78
2023/10/24 08:32:03;;;;;;;0.30;0.30;;;;;;;;;;5031055;28;20056;-80
2023/10/24 08:34:39;;;;;;;0.10;0.10;;;;;;;;;;5037310;28;20059;-79
2023/10/24 08:37:08;;;;;;;0.20;0.20;;;;;;;;;;5037344;28;20045;-78
2023/10/24 08:39:35;;;;;;;4.93;1.48;;;;;;;;;;5033621;28;20064;-79
2023/10/24 08:42:03;;;;;;;0.38;0.38;;;;;;;;;;5034576;28;20117;-78
2023/10/24 08:44:31;;;;;;;0.40;0.40;;;;;;;;;;5035219;28;20132;-79
2023/10/24 08:46:59;;;;;;;0.47;0.47;;;;;;;;;;5031137;28;20045;-78
2023/10/24 08:49:27;;;;;;;0.52;0.52;;;;;;;;;;5035595;28;20053;-78
2023/10/24 08:51:54;;;;;;;0.10;0.10;;;;;;;;;;5031492;28;20519;-79
2023/10/24 08:54:22;;;;;;;0.55;0.55;;;;;;;;;;5011800;28;20136;-79
2023/10/24 08:56:51;;;;;;;0.20;0.20;;;;;;;;;;5030796;28;20060;-79
2023/10/24 08:59:21;;;;;;;0.00;0.00;;;;;;;;;;5030092;28;20136;-78
2023/10/24 09:01:49;;;;;;;0.10;0.10;;;;;;;;;;5030632;28;20046;-78
2023/10/24 09:04:18;;;;;;;1.60;1.50;;;;;;;;;;5030068;28;20727;-78
2023/10/24 09:06:48;;;;;;;0.80;0.80;;;;;;;;;;5027013;28;20312;-75
2023/10/24 09:09:16;;;;;;;2.38;1.95;;;;;;;;;;5033536;28;20060;-78
2023/10/24 09:12:05;;;;;;;0.22;0.22;;;;;;;;;;5032097;28;20504;-78
2023/10/24 09:14:32;;;;;;;0.10;0.10;;;;;;;;;;5013239;28;20045;-78
2023/10/24 09:17:16;;;;;;;0.10;0.10;;;;;;;;;;5036387;28;20045;-79
2023/10/24 09:19:44;;;;;;;0.63;0.63;;;;;;;;;;5033349;28;20050;-80
2023/10/24 09:22:16;;;;;;;0.28;0.28;;;;;;;;;;5017121;28;20530;-79
2023/10/24 09:24:43;;;;;;;;;;;;;;;;;;5024461;28;20049;-79
2023/10/24 09:27:11;;;;;;;0.40;0.40;;;;;;;;;;5029068;28;19975;-79
2023/10/24 09:29:38;;;;;;;0.10;0.10;;;;;;;;;;5030537;28;20354;-79
2023/10/24 09:32:05;;;;;;;0.43;0.43;;;;;;;;;;5033216;28;20392;-79
2023/10/24 09:34:34;;;;;;;0.10;0.10;;;;;;;;;;5032733;28;20049;-79
2023/10/24 09:37:06;;;;;;;0.20;0.20;;;;;;;;;;5034509;28;20073;-79
2023/10/24 09:39:50;;;;;;;0.10;0.10;;;;;;;;;;5033493;28;20056;-78
2023/10/24 09:42:24;;;;;;;0.17;0.17;;;;;;;;;;5032435;28;20061;-79
2023/10/24 09:44:58;;;;;;;0.10;0.10;;;;;;;;;;5032028;28;20609;-79
2023/10/24 09:47:28;;;;;;;1.90;1.38;;;;;;;;;;5031897;28;20057;-79
2023/10/24 09:49:59;;;;;;;0.20;0.20;;;;;;;;;;5035196;28;20479;-78
2023/10/24 09:52:28;;;;;;;;;;;;;;;;;;5031255;28;20045;-78
2023/10/24 09:54:57;;;;;;;0.63;0.63;;;;;;;;;;5031893;28;19932;-78
2023/10/24 09:57:26;;;;;;;0.10;0.10;;;;;;;;;;5014989;28;20073;-78
2023/10/24 09:59:57;;;;;;;0.20;0.20;;;;;;;;;;5030999;28;20093;-78
2023/10/24 10:02:25;;;;;;;1.65;0.80;;;;;;;;;;5027840;28;20064;-79
2023/10/24 10:04:54;;;;;;;0.50;0.50;;;;;;;;;;5032558;28;20072;-78
2023/10/24 10:07:22;;;;;;;0.10;0.10;;;;;;;;;;5033959;28;20060;-78
2023/10/24 10:09:54;;;;;;;0.10;0.10;;;;;;;;;;5034783;28;20037;-78
2023/10/24 10:12:21;;;;;;;;;;;;;;;;;;5034378;28;20056;-78
2023/10/24 10:15:10;;;;;;;0.63;0.63;;;;;;;;;;5013161;28;20136;-78
2023/10/24 10:17:56;;;;;;;0.30;0.30;;;;;;;;;;5035020;28;20069;-78
2023/10/24 10:20:24;;;;;;;0.15;0.15;;;;;;;;;;5027585;28;20517;-78
2023/10/24 10:23:17;;;;;;;0.15;0.15;;;;;;;;;;5031260;28;20081;-77
2023/10/24 10:25:56;;;;;;;0.40;0.40;;;;;;;;;;5027515;28;20258;-77
2023/10/24 10:28:32;;;;;;;0.22;0.22;;;;;;;;;;5006229;28;20057;-78
2023/10/24 10:31:05;;;;;;;0.30;0.30;;;;;;;;;;5029045;28;20049;-78
2023/10/24 10:33:55;;;;;;;0.30;0.30;;;;;;;;;;5032027;28;20037;-78
2023/10/24 10:36:24;;;;;;;0.08;0.08;;;;;;;;;;5028163;28;20415;-77
2023/10/24 10:38:56;;;;;;;0.10;0.10;;;;;;;;;;5029039;28;20046;-78
2023/10/24 10:41:32;;;;;;;0.20;0.20;;;;;;;;;;5026556;28;20111;-78
2023/10/24 10:44:01;;;;;;;0.22;0.22;;;;;;;;;;5012559;28;20053;-78
2023/10/24 10:46:29;;;;;;;0.98;0.98;;;;;;;;;;5030221;28;20064;-78
2023/10/24 10:49:02;;;;;;;0.57;0.57;;;;;;;;;;5026924;28;20468;-78
2023/10/24 10:51:30;;;;;;;0.32;0.32;;;;;;;;;;5026883;28;20053;-78
2023/10/24 10:53:58;;;;;;;0.40;0.40;;;;;;;;;;5023072;28;20049;-78
2023/10/24 10:56:33;;;;;;;0.38;0.38;;;;;;;;;;5011711;28;20106;-78
2023/10/24 10:59:07;;;;;;;0.75;0.75;;;;;;;;;;5027918;28;20045;-78
2023/10/24 11:01:46;;;;;;;5.00;1.35;;;;;;;;;;5008590;28;20057;-78
2023/10/24 11:04:15;;;;;;;1.80;1.25;;;;;;;;;;5023812;28;20578;-78
2023/10/24 11:06:51;;;;;;;0.20;0.20;;;;;;;;;;5019659;28;20097;-78
2023/10/24 11:09:22;;;;;;;0.75;0.75;;;;;;;;;;5020945;28;20053;-78
2023/10/24 11:12:19;;;;;;;2.10;2.00;;;;;;;;;;5029608;28;20073;-78
2023/10/24 11:15:16;;;;;;;0.63;0.63;;;;;;;;;;5028687;28;20538;-77
2023/10/24 11:17:46;;;;;;;0.45;0.45;;;;;;;;;;4993410;28;20046;-80
2023/10/24 11:20:16;;;;;;;2.28;1.83;;;;;;;;;;5034608;28;20064;-81
2023/10/24 11:22:50;;;;;;;0.10;0.10;;;;;;;;;;5025432;28;20389;-78
2023/10/24 11:25:20;;;;;;;0.47;0.47;;;;;;;;;;5031653;28;20045;-78
2023/10/24 11:27:49;;;;;;;0.77;0.77;;;;;;;;;;5031588;28;20576;-79
2023/10/24 11:30:18;;;;;;;0.68;0.68;;;;;;;;;;5015208;28;20045;-78
2023/10/24 11:32:45;;;;;;;0.85;0.85;;;;;;;;;;5028825;28;20052;-77
2023/10/24 11:35:13;;;;;;;0.00;0.00;;;;;;;;;;5010565;28;20103;-75
2023/10/24 11:37:41;;;;;;;0.65;0.65;;;;;;;;;;5024377;28;20050;-74
2023/10/24 11:40:09;;;;;;;0.88;0.70;;;;;;;;;;5031280;28;20057;-75
2023/10/24 11:42:36;;;;;;;0.52;0.52;;;;;;;;;;5015741;28;20049;-76
2023/10/24 11:45:04;;;;;;;1.23;1.13;;;;;;;;;;5023997;28;21287;-74
2023/10/24 11:47:32;;;;;;;0.20;0.20;;;;;;;;;;5023952;28;20046;-79
2023/10/24 11:50:00;;;;;;;0.20;0.20;;;;;;;;;;5028367;28;20136;-78
2023/10/24 11:52:28;;;;;;;0.03;0.03;;;;;;;;;;5034683;28;20049;-78
2023/10/24 11:54:56;;;;;;;0.10;0.10;;;;;;;;;;5024457;28;20096;-77
2023/10/24 11:57:25;;;;;;;1.17;0.70;;;;;;;;;;5038968;28;20144;-80
2023/10/24 11:59:54;;;;;;;0.20;0.20;;;;;;;;;;5033252;28;20050;-80
2023/10/24 12:02:21;;;;;;;1.58;1.48;;;;;;;;;;5034980;28;20049;-81
2023/10/24 12:04:50;;;;;;;0.10;0.10;;;;;;;;;;5031408;28;20049;-81
2023/10/24 12:07:19;;;;;;;0.05;0.05;;;;;;;;;;5029481;28;20054;-80
2023/10/24 12:09:47;;;;;;;1.45;1.45;;;;;;;;;;5041147;28;20033;-80
2023/10/24 12:12:15;;;;;;;0.28;0.28;;;;;;;;;;5030355;28;20052;-79
2023/10/24 12:14:43;;;;;;;0.40;0.40;;;;;;;;;;5030191;28;20025;-80
2023/10/24 12:17:11;;;;;;;1.05;1.05;;;;;;;;;;5022988;28;20061;-79
2023/10/24 12:19:39;;;;;;;0.00;0.00;;;;;;;;;;5018686;28;20052;-78
2023/10/24 12:22:07;;;;;;;0.17;0.17;;;;;;;;;;5015728;28;20187;-79
2023/10/24 12:24:35;;;;;;;0.65;0.65;;;;;;;;;;5003633;28;20503;-79
2023/10/24 12:27:03;;;;;;;0.65;0.63;;;;;;;;;;5021121;28;20172;-79
2023/10/24 12:29:30;;;;;;;0.30;0.30;;;;;;;;;;5036035;23;20794;-76
2023/10/24 12:31:57;;;;;;;0.10;0.10;;;;;;;;;;5027554;28;20065;-76
2023/10/24 12:34:25;;;;;;;0.10;0.10;;;;;;;;;;5017954;28;20049;-77
2023/10/24 12:36:56;;;;;;;0.30;0.30;;;;;;;;;;5022254;28;20121;-78
2023/10/24 12:39:24;;;;;;;1.65;0.73;;;;;;;;;;5014337;28;20132;-76
2023/10/24 12:41:52;;;;;;;0.93;0.93;;;;;;;;;;5027177;28;20087;-77
2023/10/24 12:44:19;;;;;;;0.73;0.73;;;;;;;;;;5026978;28;20045;-76
2023/10/24 12:46:47;;;;;;;2.90;2.60;;;;;;;;;;5028255;28;20042;-76
2023/10/24 12:49:16;;;;;;;0.52;0.52;;;;;;;;;;5027713;28;20042;-77
2023/10/24 12:51:43;;;;;;;0.10;0.10;;;;;;;;;;5025689;28;20061;-76
2023/10/24 12:54:11;;;;;;;0.93;0.90;;;;;;;;;;5028848;28;20115;-76
2023/10/24 12:56:38;;;;;;;0.35;0.35;;;;;;;;;;5034467;28;20042;-76
2023/10/24 12:59:05;;;;;;;1.63;0.45;;;;;;;;;;5032039;28;20499;-76
2023/10/24 13:01:33;;;;;;;0.55;0.47;;;;;;;;;;5026001;28;20049;-77
2023/10/24 13:04:01;;;;;;;1.08;0.85;;;;;;;;;;5027907;28;20098;-77
2023/10/24 13:06:28;;;;;;;4.68;2.72;;;;;;;;;;5030244;28;20447;-77
2023/10/24 13:08:56;;;;;;;0.28;0.28;;;;;;;;;;5015075;28;20136;-77
2023/10/24 13:11:23;;;;;;;7.88;2.92;;;;;;;;;;5030038;28;20066;-77
2023/10/24 13:13:51;;;;;;;0.40;0.40;;;;;;;;;;5032212;28;20117;-77
2023/10/24 13:16:19;;;;;;;0.95;0.90;;;;;;;;;;5030741;28;20126;-78
2023/10/24 13:18:46;;;;;;;7.50;6.80;;;;;;;;;;5028484;28;20084;-77
2023/10/24 13:21:14;;;;;;;0.10;0.10;;;;;;;;;;5022252;28;20125;-77
2023/10/24 13:23:41;;;;;;;0.47;0.47;;;;;;;;;;5022035;28;20120;-78
2023/10/24 13:26:09;;;;;;;0.55;0.50;;;;;;;;;;5025951;28;20107;-77
2023/10/24 13:28:36;;;;;;;0.40;0.40;;;;;;;;;;5017278;28;20205;-78
2023/10/24 13:31:04;;;;;;;0.25;0.25;;;;;;;;;;5018442;28;20061;-78
2023/10/24 13:33:45;;;;;;;0.30;0.30;;;;;;;;;;5022942;28;20088;-77
2023/10/24 13:36:16;;;;;;;0.10;0.10;;;;;;;;;;5028176;28;20045;-78
2023/10/24 13:38:49;;;;;;;0.30;0.30;;;;;;;;;;5031160;28;20569;-78
2023/10/24 13:41:17;;;;;;;0.75;0.50;;;;;;;;;;5030873;28;20095;-78
2023/10/24 13:43:44;;;;;;;4.20;2.05;;;;;;;;;;5033091;28;20372;-78
2023/10/24 13:46:12;;;;;;;0.65;0.65;;;;;;;;;;5028210;28;20038;-80
2023/10/24 13:48:39;;;;;;;1.75;1.10;;;;;;;;;;5027576;28;20049;-79
2023/10/24 13:51:07;;;;;;;0.98;0.98;;;;;;;;;;5023574;28;20094;-77
2023/10/24 13:53:35;;;;;;;0.38;0.38;;;;;;;;;;5022821;28;20053;-79
2023/10/24 13:56:03;;;;;;;0.52;0.52;;;;;;;;;;5025526;28;20045;-79
2023/10/24 13:58:31;;;;;;;0.82;0.82;;;;;;;;;;5030811;28;20042;-79
2023/10/24 14:00:58;;;;;;;1.05;0.95;;;;;;;;;;5021603;28;20049;-79
2023/10/24 14:03:25;;;;;;;0.77;0.77;;;;;;;;;;5024095;28;20123;-79
2023/10/24 14:05:53;;;;;;;0.10;0.10;;;;;;;;;;5016818;28;20144;-79
2023/10/24 14:08:21;;;;;;;0.25;0.25;;;;;;;;;;5011581;28;20490;-79
2023/10/24 14:10:48;;;;;;;1.67;0.82;;;;;;;;;;5005757;28;20037;-78
2023/10/24 14:13:16;;;;;;;0.10;0.10;;;;;;;;;;5004233;28;20046;-78
2023/10/24 14:15:43;;;;;;;0.98;0.70;;;;;;;;;;5001927;28;20046;-79
2023/10/24 14:18:11;;;;;;;0.95;0.90;;;;;;;;;;5004366;28;20500;-78
2023/10/24 14:20:39;;;;;;;0.22;0.22;;;;;;;;;;5005736;28;20053;-78
2023/10/24 14:23:06;;;;;;;0.15;0.15;;;;;;;;;;5006853;28;20052;-79
2023/10/24 14:25:34;;;;;;;0.38;0.38;;;;;;;;;;5006454;28;20050;-77
2023/10/24 14:28:02;;;;;;;0.28;0.28;;;;;;;;;;5001108;28;20132;-78
2023/10/24 14:30:29;;;;;;;0.03;0.03;;;;;;;;;;5004050;28;20583;-78
2023/10/24 14:32:57;;;;;;;0.50;0.50;;;;;;;;;;5005886;28;20042;-78
2023/10/24 14:35:24;;;;;;;0.20;0.20;;;;;;;;;;5007568;28;20522;-78
2023/10/24 14:37:52;;;;;;;0.25;0.25;;;;;;;;;;5004850;28;20066;-78
2023/10/24 14:40:19;;;;;;;0.93;0.90;;;;;;;;;;5006138;28;20077;-77
2023/10/24 14:42:47;;;;;;;0.52;0.52;;;;;;;;;;5004199;28;20045;-78
2023/10/24 14:45:14;;;;;;;0.13;0.13;;;;;;;;;;5004092;28;20530;-78
2023/10/24 14:47:42;;;;;;;0.00;0.00;;;;;;;;;;5007347;28;20412;-78
2023/10/24 14:50:10;;;;;;;0.03;0.03;;;;;;;;;;5000911;28;20080;-78
2023/10/24 14:52:37;;;;;;;0.20;0.20;;;;;;;;;;5014917;28;20038;-78